Time;durP1;ratioP1;P1;durP2;ratioP2;P2;SDS_P1;SDS_P2;PMS_P1;PMS_P2;Temp;Humidity;BMP_temperature;BMP_pressure;BME280_temperature;BME280_humidity;BME280_pressure;Samples;Min_cycle;Max_cycle;Signal;HPM_P1;HPM_P2
2020/12/08 00:00:39;;;;;;;2.50;0.32;;;22.40;59.60;;;;;;5134504;27;20088;-57
2020/12/08 00:03:07;;;;;;;1.75;0.35;;;23.10;58.50;;;;;;5115591;27;20134;-60
2020/12/08 00:05:36;;;;;;;1.33;0.40;;;23.70;56.20;;;;;;5134106;27;20030;-60
2020/12/08 00:08:05;;;;;;;1.70;0.30;;;24.20;57.50;;;;;;5134570;28;20535;-60
2020/12/08 00:10:34;;;;;;;3.53;0.30;;;24.70;55.80;;;;;;5134454;28;20106;-57
2020/12/08 00:13:02;;;;;;;1.13;0.40;;;25.00;56.60;;;;;;5134166;28;20027;-58
2020/12/08 00:15:30;;;;;;;1.75;0.52;;;24.60;55.60;;;;;;5134055;28;20031;-58
2020/12/08 00:17:58;;;;;;;2.03;0.40;;;24.10;55.20;;;;;;5094737;28;20035;-58
2020/12/08 00:20:27;;;;;;;1.08;0.20;;;23.90;57.30;;;;;;5112818;28;20035;-58
2020/12/08 00:22:55;;;;;;;0.85;0.30;;;23.80;56.40;;;;;;5115934;28;20035;-58
2020/12/08 00:25:23;;;;;;;2.88;0.40;;;23.90;56.20;;;;;;5116316;28;20495;-58
2020/12/08 00:27:51;;;;;;;1.60;0.40;;;24.20;56.20;;;;;;5115824;28;20506;-61
2020/12/08 00:30:22;;;;;;;0.45;0.30;;;24.50;56.10;;;;;;5115541;28;20023;-58
2020/12/08 00:32:49;;;;;;;;;;;24.80;55.10;;;;;;5116146;28;20135;-57
2020/12/08 00:35:19;;;;;;;2.58;0.50;;;24.50;55.30;;;;;;5115547;28;20425;-58
2020/12/08 00:37:47;;;;;;;0.70;0.20;;;24.50;54.60;;;;;;5115467;28;20035;-58
2020/12/08 00:40:18;;;;;;;0.95;0.32;;;24.60;56.40;;;;;;5115328;28;20024;-58
2020/12/08 00:42:47;;;;;;;1.27;0.40;;;24.80;55.30;;;;;;5115262;28;20032;-58
2020/12/08 00:45:15;;;;;;;1.20;0.30;;;24.70;54.30;;;;;;5115607;28;20055;-59
2020/12/08 00:47:46;;;;;;;1.25;0.40;;;24.70;54.70;;;;;;5115160;28;20057;-59
2020/12/08 00:50:15;;;;;;;0.98;0.30;;;25.00;55.80;;;;;;5138155;27;20031;-59
2020/12/08 00:52:43;;;;;;;0.50;0.20;;;25.40;55.50;;;;;;5137922;27;20551;-59
2020/12/08 00:55:12;;;;;;;0.50;0.30;;;25.50;53.80;;;;;;5137656;27;20027;-59
2020/12/08 00:57:40;;;;;;;2.50;0.30;;;25.70;54.70;;;;;;5137572;27;20104;-59
2020/12/08 01:00:08;;;;;;;0.95;0.30;;;25.80;53.50;;;;;;5137922;27;20019;-59
2020/12/08 01:02:37;;;;;;;0.45;0.17;;;25.60;53.80;;;;;;5137914;27;20126;-59
2020/12/08 01:05:11;;;;;;;1.02;0.20;;;25.40;52.90;;;;;;5119134;27;20028;-58
2020/12/08 01:07:40;;;;;;;0.63;0.20;;;25.00;52.50;;;;;;5137826;27;20464;-59
2020/12/08 01:10:08;;;;;;;1.65;0.30;;;25.20;54.40;;;;;;5137768;27;20019;-59
2020/12/08 01:12:37;;;;;;;2.72;0.52;;;25.50;53.40;;;;;;5137792;27;20467;-58
2020/12/08 01:15:05;;;;;;;1.27;0.20;;;24.70;52.80;;;;;;5137677;27;20062;-59
2020/12/08 01:17:34;;;;;;;0.65;0.10;;;24.50;53.70;;;;;;5137686;27;20027;-58
2020/12/08 01:20:04;;;;;;;0.60;0.20;;;24.90;53.20;;;;;;5137521;27;20467;-58
2020/12/08 01:22:32;;;;;;;2.22;0.22;;;24.90;52.50;;;;;;5137247;27;20023;-58
2020/12/08 01:25:00;;;;;;;1.85;0.47;;;25.10;53.20;;;;;;5137223;27;20424;-59
2020/12/08 01:27:31;;;;;;;1.13;0.30;;;25.10;53.00;;;;;;5137628;27;20051;-59
2020/12/08 01:29:59;;;;;;;1.73;0.43;;;25.20;52.70;;;;;;5137374;27;20401;-59
2020/12/08 01:32:28;;;;;;;1.40;0.40;;;25.30;53.30;;;;;;5136006;27;20377;-59
2020/12/08 01:34:56;;;;;;;1.27;0.28;;;25.30;54.00;;;;;;5137032;27;20491;-58
2020/12/08 01:37:24;;;;;;;0.75;0.30;;;24.90;57.20;;;;;;5136913;27;20027;-59
2020/12/08 01:39:53;;;;;;;2.00;0.20;;;24.90;55.40;;;;;;5137257;27;20468;-60
2020/12/08 01:42:21;;;;;;;2.55;0.60;;;24.90;56.80;;;;;;5136792;27;20027;-59
2020/12/08 01:44:50;;;;;;;1.35;0.35;;;25.00;57.80;;;;;;5136722;27;20035;-59
2020/12/08 01:47:19;;;;;;;0.68;0.10;;;25.30;56.00;;;;;;5137014;27;20031;-59
2020/12/08 01:49:49;;;;;;;1.80;0.30;;;25.60;53.30;;;;;;5136995;27;20015;-59
2020/12/08 01:52:18;;;;;;;0.67;0.30;;;25.60;55.50;;;;;;5136828;27;20033;-59
2020/12/08 01:54:50;;;;;;;0.80;0.20;;;25.60;56.00;;;;;;5136779;27;20490;-59
2020/12/08 01:57:21;;;;;;;2.58;0.38;;;25.80;56.40;;;;;;5136365;27;20043;-59
2020/12/08 01:59:54;;;;;;;1.25;0.40;;;25.70;56.10;;;;;;5118052;27;20068;-59
2020/12/08 02:02:24;;;;;;;1.17;0.50;;;25.10;56.10;;;;;;5136537;27;20038;-59
2020/12/08 02:04:52;;;;;;;2.47;0.73;;;24.80;57.50;;;;;;5136495;27;20460;-59
2020/12/08 02:07:20;;;;;;;1.00;0.70;;;24.90;57.00;;;;;;5136433;27;20133;-59
2020/12/08 02:09:49;;;;;;;2.92;0.40;;;25.10;57.40;;;;;;5136002;27;20019;-58
2020/12/08 02:12:17;;;;;;;0.93;0.35;;;25.00;57.90;;;;;;5136367;27;20023;-59
2020/12/08 02:14:45;;;;;;;1.67;0.45;;;25.20;58.30;;;;;;5136304;27;20027;-59
2020/12/08 02:17:14;;;;;;;2.25;0.60;;;25.10;59.80;;;;;;5135786;27;20459;-59
2020/12/08 02:19:45;;;;;;;2.15;0.40;;;25.30;58.00;;;;;;5135836;27;20023;-58
2020/12/08 02:22:13;;;;;;;5.20;0.47;;;25.60;57.10;;;;;;5117339;27;20387;-58
2020/12/08 02:24:42;;;;;;;1.88;0.50;;;25.30;58.20;;;;;;5135857;27;20051;-58
2020/12/08 02:27:10;;;;;;;5.10;0.50;;;25.30;58.60;;;;;;5135788;27;20024;-58
2020/12/08 02:29:38;;;;;;;1.73;0.47;;;25.00;57.70;;;;;;5136061;27;20011;-59
2020/12/08 02:32:07;;;;;;;1.20;0.40;;;24.30;59.60;;;;;;5135788;27;20059;-58
2020/12/08 02:34:35;;;;;;;0.93;0.43;;;24.30;60.40;;;;;;5135887;27;20080;-58
2020/12/08 02:37:03;;;;;;;3.95;0.60;;;24.20;59.90;;;;;;5135727;27;20023;-59
2020/12/08 02:39:31;;;;;;;2.67;0.75;;;24.00;61.60;;;;;;5135730;27;20019;-58
2020/12/08 02:42:00;;;;;;;1.00;0.30;;;24.00;62.30;;;;;;5136181;27;20069;-59
2020/12/08 02:44:28;;;;;;;1.98;0.30;;;23.70;63.00;;;;;;5135932;27;20016;-58
2020/12/08 02:46:56;;;;;;;1.67;0.30;;;23.60;62.70;;;;;;5135548;27;20037;-58
2020/12/08 02:49:25;;;;;;;2.90;0.40;;;23.20;61.80;;;;;;5135854;27;20019;-59
2020/12/08 02:51:57;;;;;;;2.78;0.40;;;23.40;61.20;;;;;;5116673;27;20030;-58
2020/12/08 02:54:26;;;;;;;4.03;0.40;;;23.60;61.30;;;;;;5135412;27;20059;-58
2020/12/08 02:56:54;;;;;;;2.42;0.30;;;23.80;61.80;;;;;;5135229;27;20043;-60
2020/12/08 02:59:22;;;;;;;1.90;0.35;;;24.10;62.30;;;;;;5116905;27;20517;-58
2020/12/08 03:01:55;;;;;;;0.55;0.20;;;24.40;61.90;;;;;;5135206;27;20019;-58
2020/12/08 03:04:23;;;;;;;3.90;0.30;;;24.60;62.30;;;;;;5135637;27;20019;-59
2020/12/08 03:06:51;;;;;;;3.38;0.50;;;24.40;61.20;;;;;;5135404;27;20022;-58
2020/12/08 03:09:19;;;;;;;3.50;0.20;;;24.40;61.90;;;;;;5135117;27;20064;-58
2020/12/08 03:11:48;;;;;;;1.13;0.30;;;24.60;61.90;;;;;;5116669;27;20030;-59
2020/12/08 03:14:16;;;;;;;1.08;0.30;;;24.80;61.90;;;;;;5116516;27;20114;-59
2020/12/08 03:16:44;;;;;;;3.05;0.68;;;24.80;62.00;;;;;;5135307;27;20031;-58
2020/12/08 03:19:13;;;;;;;2.53;0.40;;;24.90;63.50;;;;;;5134984;27;20023;-58
2020/12/08 03:21:41;;;;;;;2.22;0.85;;;24.70;63.40;;;;;;5135074;27;20027;-59
2020/12/08 03:24:09;;;;;;;1.38;0.40;;;24.60;63.30;;;;;;5134829;27;20022;-59
2020/12/08 03:26:37;;;;;;;2.28;0.50;;;24.60;63.10;;;;;;5135050;27;20057;-58
2020/12/08 03:29:05;;;;;;;1.90;0.35;;;24.30;62.70;;;;;;5135049;27;20535;-58
2020/12/08 03:31:33;;;;;;;1.25;0.40;;;24.50;63.60;;;;;;5135009;27;20101;-58
2020/12/08 03:34:01;;;;;;;1.17;0.40;;;24.90;64.20;;;;;;5135767;27;20023;-59
2020/12/08 03:36:29;;;;;;;2.22;0.50;;;25.20;61.60;;;;;;5116185;27;20023;-59
2020/12/08 03:38:58;;;;;;;1.23;0.22;;;24.90;61.70;;;;;;5134529;27;20438;-58
2020/12/08 03:41:26;;;;;;;1.58;0.40;;;24.80;62.60;;;;;;5134785;27;20433;-59
2020/12/08 03:43:54;;;;;;;1.75;0.55;;;24.40;62.80;;;;;;5134796;27;20518;-60
2020/12/08 03:46:25;;;;;;;1.83;0.40;;;24.20;64.30;;;;;;5134762;27;20041;-58
2020/12/08 03:48:55;;;;;;;1.60;0.50;;;24.30;64.70;;;;;;5116164;27;20023;-57
2020/12/08 03:51:23;;;;;;;2.03;0.45;;;24.60;63.10;;;;;;5134683;27;20030;-58
2020/12/08 03:53:52;;;;;;;4.05;0.65;;;24.80;63.30;;;;;;5134652;27;20015;-58
2020/12/08 03:56:20;;;;;;;3.33;0.77;;;24.90;62.40;;;;;;5133792;27;20043;-58
2020/12/08 03:58:49;;;;;;;4.10;0.75;;;24.90;63.10;;;;;;5134621;27;20094;-58
2020/12/08 04:01:20;;;;;;;3.88;0.70;;;24.40;64.30;;;;;;5134854;27;20019;-58
2020/12/08 04:03:51;;;;;;;0.88;0.50;;;24.50;63.30;;;;;;5134585;27;20020;-58
2020/12/08 04:06:20;;;;;;;2.67;0.43;;;24.40;63.10;;;;;;5134604;27;20097;-58
2020/12/08 04:08:48;;;;;;;2.92;0.70;;;24.40;62.40;;;;;;5134520;27;20042;-58
2020/12/08 04:11:19;;;;;;;2.92;0.60;;;24.40;62.80;;;;;;5134529;28;20346;-59
2020/12/08 04:13:50;;;;;;;1.88;0.55;;;24.50;62.50;;;;;;5116116;28;20030;-60
2020/12/08 04:16:19;;;;;;;1.98;0.60;;;24.40;61.70;;;;;;5134166;28;20023;-60
2020/12/08 04:18:47;;;;;;;2.95;0.90;;;24.50;63.30;;;;;;5134194;28;20019;-59
2020/12/08 04:21:25;;;;;;;3.95;0.60;;;24.40;62.30;;;;;;5134066;28;20047;-59
2020/12/08 04:23:54;;;;;;;5.18;0.88;;;24.30;63.50;;;;;;5134627;28;20019;-59
2020/12/08 04:26:23;;;;;;;2.78;0.50;;;24.80;63.10;;;;;;5134153;28;20027;-59
2020/12/08 04:28:51;;;;;;;2.80;0.63;;;24.90;62.50;;;;;;5134366;28;20025;-59
2020/12/08 04:31:19;;;;;;;3.95;0.93;;;25.20;62.00;;;;;;5133722;28;20513;-60
2020/12/08 04:33:48;;;;;;;5.07;0.77;;;25.00;62.20;;;;;;5115373;28;20395;-60
2020/12/08 04:36:22;;;;;;;3.92;0.77;;;24.90;61.80;;;;;;5133872;28;20035;-60
2020/12/08 04:38:51;;;;;;;2.53;0.65;;;25.00;62.40;;;;;;5134104;28;20020;-59
2020/12/08 04:41:24;;;;;;;5.05;0.70;;;24.80;62.50;;;;;;5133209;28;20031;-60
2020/12/08 04:43:54;;;;;;;3.20;0.75;;;25.00;63.00;;;;;;5114762;28;20087;-60
2020/12/08 04:46:24;;;;;;;2.33;0.80;;;25.30;62.80;;;;;;5133277;28;20015;-60
2020/12/08 04:48:53;;;;;;;2.30;0.50;;;25.10;62.70;;;;;;5133962;28;20024;-60
2020/12/08 04:51:22;;;;;;;3.42;0.60;;;25.10;63.70;;;;;;5133533;28;20016;-59
2020/12/08 04:53:54;;;;;;;5.97;0.90;;;25.00;62.80;;;;;;5133276;28;20027;-60
2020/12/08 04:56:22;;;;;;;3.47;0.70;;;24.80;62.60;;;;;;5133125;28;20047;-60
2020/12/08 04:58:50;;;;;;;4.03;1.08;;;24.80;62.90;;;;;;5115127;28;20030;-59
2020/12/08 05:01:28;;;;;;;2.53;0.70;;;24.90;62.30;;;;;;5132928;28;20019;-60
2020/12/08 05:04:01;;;;;;;3.13;0.70;;;24.90;63.60;;;;;;5133290;28;20043;-59
2020/12/08 05:06:31;;;;;;;4.97;0.93;;;25.10;62.30;;;;;;5134533;27;20482;-60
2020/12/08 05:09:07;;;;;;;2.08;0.90;;;25.10;62.40;;;;;;5137068;27;20500;-60
2020/12/08 05:11:36;;;;;;;3.13;0.80;;;25.20;62.80;;;;;;5137666;27;20356;-59
2020/12/08 05:14:06;;;;;;;4.03;1.02;;;25.30;63.10;;;;;;5117899;27;20024;-60
2020/12/08 05:16:35;;;;;;;2.13;0.85;;;25.10;62.60;;;;;;5118324;27;20032;-60
2020/12/08 05:19:08;;;;;;;3.47;0.88;;;24.70;63.30;;;;;;5136740;27;20027;-60
2020/12/08 05:21:50;;;;;;;4.82;0.82;;;24.80;63.80;;;;;;5136981;27;20019;-60
2020/12/08 05:24:37;;;;;;;5.45;0.88;;;24.90;63.90;;;;;;5136939;27;20012;-60
2020/12/08 05:27:07;;;;;;;1.92;0.63;;;25.10;62.90;;;;;;5113279;28;20039;-60
2020/12/08 05:29:36;;;;;;;3.50;0.65;;;25.20;63.00;;;;;;5113983;28;20039;-60
2020/12/08 05:32:32;;;;;;;3.37;0.70;;;25.10;63.40;;;;;;5113899;28;20436;-60
2020/12/08 05:35:04;;;;;;;5.40;1.20;;;25.30;63.90;;;;;;5073124;28;20037;-60
2020/12/08 05:37:37;;;;;;;6.47;0.90;;;25.70;62.20;;;;;;5056489;28;20116;-60
2020/12/08 05:40:11;;;;;;;2.50;0.90;;;25.50;61.60;;;;;;5073338;28;20452;-60
2020/12/08 05:42:42;;;;;;;3.60;1.00;;;25.20;63.60;;;;;;5072834;28;20064;-60
2020/12/08 05:45:13;;;;;;;4.20;0.80;;;25.10;63.30;;;;;;5072892;28;20525;-60
2020/12/08 05:47:50;;;;;;;3.80;0.70;;;24.90;63.30;;;;;;5072708;28;20033;-60
2020/12/08 05:50:20;;;;;;;3.75;0.80;;;24.90;62.60;;;;;;5072678;28;20036;-60
2020/12/08 05:52:55;;;;;;;3.95;0.73;;;25.10;62.80;;;;;;5073363;28;20041;-60
2020/12/08 05:55:25;;;;;;;3.08;0.60;;;25.20;62.70;;;;;;5073534;28;20029;-60
2020/12/08 05:57:53;;;;;;;3.97;0.90;;;25.20;62.90;;;;;;5074423;28;20049;-60
2020/12/08 06:00:27;;;;;;;4.00;0.80;;;25.30;62.50;;;;;;5093498;28;20050;-60
2020/12/08 06:03:16;;;;;;;2.63;0.57;;;25.40;62.50;;;;;;5076382;28;20036;-60
2020/12/08 06:05:46;;;;;;;3.47;0.60;;;25.30;62.70;;;;;;5113622;27;20163;-60
2020/12/08 06:08:18;;;;;;;6.03;1.27;;;25.20;63.20;;;;;;5136549;27;20031;-60
2020/12/08 06:10:54;;;;;;;5.03;0.90;;;25.20;62.70;;;;;;5136271;27;20031;-60
2020/12/08 06:13:31;;;;;;;2.47;0.80;;;25.50;62.30;;;;;;5136613;27;20095;-60
2020/12/08 06:16:01;;;;;;;3.45;0.85;;;25.60;61.70;;;;;;5136409;27;20031;-60
2020/12/08 06:18:39;;;;;;;4.13;0.90;;;25.30;61.70;;;;;;5099935;27;20027;-61
2020/12/08 06:21:27;;;;;;;3.75;0.70;;;25.30;61.90;;;;;;5136380;27;20463;-61
2020/12/08 06:24:01;;;;;;;2.63;0.85;;;25.40;61.50;;;;;;5136568;27;20020;-60
2020/12/08 06:26:36;;;;;;;3.28;0.68;;;25.40;61.40;;;;;;5117483;27;20386;-60
2020/12/08 06:29:12;;;;;;;3.25;0.82;;;25.60;61.70;;;;;;5136203;27;20019;-60
2020/12/08 06:31:45;;;;;;;6.18;1.35;;;25.80;62.30;;;;;;5135745;27;20023;-60
2020/12/08 06:34:31;;;;;;;4.88;0.90;;;26.00;61.20;;;;;;5135408;27;20023;-60
2020/12/08 06:37:18;;;;;;;4.10;0.90;;;26.20;61.30;;;;;;5135340;27;20383;-60
2020/12/08 06:39:46;;;;;;;4.00;0.90;;;26.20;61.30;;;;;;5112310;28;20035;-60
2020/12/08 06:42:15;;;;;;;3.20;0.75;;;26.20;61.20;;;;;;5112726;28;20044;-60
2020/12/08 06:44:43;;;;;;;3.28;0.77;;;26.50;61.40;;;;;;5112403;28;20112;-59
2020/12/08 06:47:11;;;;;;;5.93;0.88;;;26.40;60.50;;;;;;5112055;28;20133;-59
2020/12/08 06:49:42;;;;;;;2.75;0.93;;;26.10;61.30;;;;;;5111915;28;20035;-60
2020/12/08 06:52:09;;;;;;;;;;;26.50;61.90;;;;;;5112385;28;20060;-59
2020/12/08 06:54:40;;;;;;;2.80;0.80;;;26.70;60.90;;;;;;5111732;28;19903;-59
2020/12/08 06:57:08;;;;;;;7.40;1.05;;;27.00;59.60;;;;;;5111741;28;20055;-61
2020/12/08 06:59:36;;;;;;;40.80;11.65;;;27.20;59.60;;;;;;5112024;28;20065;-59
2020/12/08 07:02:04;;;;;;;20.50;8.13;;;26.80;60.80;;;;;;5113178;28;20031;-59
2020/12/08 07:04:33;;;;;;;35.53;25.85;;;26.80;61.40;;;;;;5112848;28;20057;-58
2020/12/08 07:07:01;;;;;;;19.35;11.88;;;26.70;60.30;;;;;;5095378;28;20020;-58
2020/12/08 07:09:35;;;;;;;6.93;4.60;;;26.10;60.50;;;;;;5112924;28;20031;-58
2020/12/08 07:12:04;;;;;;;108.05;82.30;;;25.70;61.40;;;;;;5135066;27;20031;-59
2020/12/08 07:14:36;;;;;;;54.92;40.83;;;25.30;63.40;;;;;;5116630;27;20046;-59
2020/12/08 07:17:06;;;;;;;13.65;7.43;;;24.90;63.50;;;;;;5135866;27;20467;-59
2020/12/08 07:19:33;;;;;;;;;;;24.30;63.60;;;;;;5116891;27;20114;-59
2020/12/08 07:22:08;;;;;;;22.33;14.52;;;23.60;64.60;;;;;;5134700;27;19912;-59
2020/12/08 07:24:43;;;;;;;11.68;4.25;;;23.30;66.90;;;;;;5135079;27;20038;-59
2020/12/08 07:27:13;;;;;;;6.50;2.53;;;23.20;66.30;;;;;;5134975;27;20050;-58
2020/12/08 07:29:42;;;;;;;8.38;2.35;;;22.90;66.80;;;;;;5133742;27;20023;-58
2020/12/08 07:32:10;;;;;;;7.95;2.40;;;22.60;67.20;;;;;;5115852;27;20038;-58
2020/12/08 07:34:47;;;;;;;5.03;1.23;;;22.50;67.80;;;;;;5134812;27;20149;-59
2020/12/08 07:37:19;;;;;;;7.50;2.08;;;22.30;68.60;;;;;;5134586;27;20027;-58
2020/12/08 07:39:47;;;;;;;4.95;1.88;;;22.30;68.50;;;;;;5134815;27;20019;-59
2020/12/08 07:42:18;;;;;;;4.07;1.38;;;22.40;70.00;;;;;;5081665;27;20032;-58
2020/12/08 07:44:57;;;;;;;5.10;1.20;;;22.40;69.00;;;;;;5134525;27;20019;-59
2020/12/08 07:47:26;;;;;;;4.38;1.30;;;22.60;69.30;;;;;;5134616;27;20479;-58
2020/12/08 07:49:54;;;;;;;4.35;1.50;;;22.90;68.00;;;;;;5134638;27;20023;-56
2020/12/08 07:52:22;;;;;;;7.47;1.17;;;22.70;67.40;;;;;;5098311;27;20080;-57
2020/12/08 07:54:51;;;;;;;3.28;0.95;;;23.00;66.70;;;;;;5098354;27;20387;-59
2020/12/08 07:57:19;;;;;;;4.72;0.82;;;22.90;66.40;;;;;;5117455;27;20507;-59
2020/12/08 07:59:47;;;;;;;4.80;1.23;;;22.70;67.60;;;;;;5114006;28;20028;-59
2020/12/08 08:02:15;;;;;;;4.43;0.80;;;22.40;68.70;;;;;;5113555;28;20051;-59
2020/12/08 08:04:44;;;;;;;4.70;1.10;;;22.30;68.60;;;;;;5113858;28;20055;-59
2020/12/08 08:07:12;;;;;;;3.70;0.95;;;21.90;69.80;;;;;;5095634;28;20392;-60
2020/12/08 08:09:41;;;;;;;5.97;1.65;;;21.40;70.30;;;;;;5097078;28;20440;-59
2020/12/08 08:12:09;;;;;;;2.80;0.60;;;21.00;71.70;;;;;;5095200;28;20088;-59
2020/12/08 08:14:37;;;;;;;3.90;1.00;;;20.80;72.10;;;;;;5095488;28;20031;-60
2020/12/08 08:17:05;;;;;;;6.03;1.00;;;20.60;73.10;;;;;;5113847;28;20043;-59
2020/12/08 08:19:34;;;;;;;4.63;0.95;;;20.50;74.10;;;;;;5113644;28;20491;-59
2020/12/08 08:22:03;;;;;;;5.13;1.30;;;20.40;74.50;;;;;;5113489;28;20062;-59
2020/12/08 08:24:32;;;;;;;6.93;1.30;;;20.20;75.30;;;;;;5113416;28;20520;-59
2020/12/08 08:27:00;;;;;;;4.75;1.13;;;20.10;76.40;;;;;;5113505;28;20022;-59
2020/12/08 08:29:28;;;;;;;6.53;1.63;;;20.00;77.20;;;;;;5113585;28;20361;-57
2020/12/08 08:31:57;;;;;;;5.10;1.67;;;20.00;77.40;;;;;;5113844;28;20383;-58
2020/12/08 08:34:25;;;;;;;5.32;1.13;;;19.90;77.40;;;;;;5113411;28;20031;-57
2020/12/08 08:36:55;;;;;;;3.33;0.90;;;19.80;77.60;;;;;;5113426;28;20106;-58
2020/12/08 08:39:23;;;;;;;6.88;1.30;;;19.70;78.30;;;;;;5113949;28;20391;-58
2020/12/08 08:41:56;;;;;;;5.30;1.25;;;19.60;78.10;;;;;;5115456;28;20028;-58
2020/12/08 08:44:24;;;;;;;4.13;0.90;;;19.60;78.40;;;;;;5082587;28;20049;-58
2020/12/08 08:46:53;;;;;;;7.07;1.50;;;19.50;78.90;;;;;;5118029;28;20367;-59
2020/12/08 08:49:21;;;;;;;4.40;0.90;;;19.40;79.30;;;;;;5118558;28;20065;-59
2020/12/08 08:51:50;;;;;;;6.03;1.23;;;19.40;78.90;;;;;;5117279;28;20031;-59
2020/12/08 08:54:19;;;;;;;6.95;1.10;;;19.30;79.70;;;;;;5117227;28;20028;-59
2020/12/08 08:56:47;;;;;;;3.65;1.10;;;19.30;80.00;;;;;;5117081;28;20043;-59
2020/12/08 08:59:16;;;;;;;4.60;1.25;;;19.20;79.70;;;;;;5098750;28;20055;-60
2020/12/08 09:01:44;;;;;;;6.88;1.48;;;19.20;79.80;;;;;;5098861;28;20115;-59
2020/12/08 09:04:12;;;;;;;9.38;4.47;;;19.10;80.80;;;;;;5082438;28;20028;-60
2020/12/08 09:06:40;;;;;;;4.65;1.77;;;19.10;80.80;;;;;;5117344;28;20038;-59
2020/12/08 09:09:08;;;;;;;8.27;1.80;;;19.00;81.70;;;;;;5116887;28;20015;-59
2020/12/08 09:11:36;;;;;;;4.82;1.33;;;19.00;82.00;;;;;;5098469;28;20057;-56
2020/12/08 09:14:06;;;;;;;6.70;1.42;;;19.00;82.60;;;;;;5117132;28;20020;-60
2020/12/08 09:16:34;;;;;;;5.10;1.45;;;19.00;83.00;;;;;;5117099;28;20039;-60
2020/12/08 09:19:03;;;;;;;5.18;1.50;;;19.00;82.90;;;;;;5117128;28;20460;-59
2020/12/08 09:21:31;;;;;;;7.07;1.88;;;18.90;84.00;;;;;;5098281;28;20490;-58
2020/12/08 09:23:59;;;;;;;6.57;1.20;;;18.90;83.20;;;;;;5116793;28;20371;-58
2020/12/08 09:26:27;;;;;;;4.97;1.08;;;18.90;83.10;;;;;;5116280;28;20046;-59
2020/12/08 09:28:55;;;;;;;8.50;1.13;;;18.80;83.30;;;;;;5115893;28;20094;-59
2020/12/08 09:31:23;;;;;;;4.25;1.00;;;18.80;83.70;;;;;;5115864;28;20022;-59
2020/12/08 09:33:53;;;;;;;6.60;1.70;;;18.80;84.20;;;;;;5116514;28;20028;-58
2020/12/08 09:36:22;;;;;;;5.68;1.25;;;18.80;84.20;;;;;;5116327;28;20111;-59
2020/12/08 09:38:50;;;;;;;7.85;2.10;;;18.80;84.50;;;;;;5097722;28;20119;-58
2020/12/08 09:41:18;;;;;;;5.47;0.90;;;18.80;84.80;;;;;;5116031;28;20062;-59
2020/12/08 09:43:46;;;;;;;4.30;1.50;;;18.70;85.30;;;;;;5116281;28;20034;-58
2020/12/08 09:46:15;;;;;;;5.72;0.98;;;18.70;85.40;;;;;;5115789;28;20024;-59
2020/12/08 09:48:43;;;;;;;7.70;2.53;;;18.70;85.30;;;;;;5116273;28;20471;-51
2020/12/08 09:51:11;;;;;;;4.97;0.98;;;18.60;85.20;;;;;;5116312;28;20030;-52
2020/12/08 09:53:41;;;;;;;6.35;1.27;;;18.60;85.80;;;;;;5114868;28;20027;-52
2020/12/08 09:56:09;;;;;;;7.20;1.25;;;18.60;86.30;;;;;;5115669;28;20415;-48
2020/12/08 09:58:37;;;;;;;7.53;1.25;;;18.60;88.00;;;;;;5097920;28;20031;-51
2020/12/08 10:01:05;;;;;;;3.25;1.08;;;18.60;87.40;;;;;;5116015;28;20042;-51
2020/12/08 10:03:33;;;;;;;6.05;1.40;;;18.50;87.10;;;;;;5115623;28;20024;-48
2020/12/08 10:06:02;;;;;;;6.15;1.45;;;18.50;87.50;;;;;;5098062;28;20085;-51
2020/12/08 10:08:31;;;;;;;5.40;1.55;;;18.50;87.40;;;;;;5115208;28;20019;-51
2020/12/08 10:10:59;;;;;;;6.85;1.55;;;18.50;87.80;;;;;;5115206;28;20072;-52
2020/12/08 10:13:26;;;;;;;4.53;1.00;;;18.50;87.00;;;;;;5115112;28;20023;-51
2020/12/08 10:15:54;;;;;;;7.65;1.30;;;18.40;86.50;;;;;;5115781;28;20027;-49
2020/12/08 10:18:23;;;;;;;8.00;1.77;;;18.40;87.30;;;;;;5115767;28;20027;-50
2020/12/08 10:20:50;;;;;;;4.50;1.40;;;18.40;87.50;;;;;;5115722;28;20053;-54
2020/12/08 10:23:19;;;;;;;6.65;1.35;;;18.40;87.80;;;;;;5115290;28;20411;-53
2020/12/08 10:25:47;;;;;;;5.80;1.67;;;18.40;88.00;;;;;;5096858;28;20024;-52
2020/12/08 10:28:15;;;;;;;8.85;1.48;;;18.40;88.30;;;;;;5115298;28;20024;-50
2020/12/08 10:30:43;;;;;;;5.05;0.93;;;18.30;88.80;;;;;;5115565;28;20093;-48
2020/12/08 10:33:10;;;;;;;6.22;1.50;;;18.30;88.90;;;;;;5115269;28;20027;-48
2020/12/08 10:35:38;;;;;;;8.88;1.38;;;18.30;89.10;;;;;;5115152;28;20028;-49
2020/12/08 10:38:06;;;;;;;5.70;1.20;;;18.30;89.50;;;;;;5115399;28;20114;-52
2020/12/08 10:40:34;;;;;;;6.00;1.77;;;18.30;90.10;;;;;;5115150;28;20468;-52
2020/12/08 10:43:03;;;;;;;10.32;2.42;;;18.30;89.40;;;;;;5115115;28;20111;-51
2020/12/08 10:45:31;;;;;;;5.13;1.75;;;18.30;90.50;;;;;;5115198;28;20080;-49
2020/12/08 10:47:59;;;;;;;5.90;1.35;;;18.30;90.00;;;;;;5115164;28;20016;-49
2020/12/08 10:50:28;;;;;;;10.98;1.50;;;18.30;89.80;;;;;;5115121;28;20074;-47
2020/12/08 10:52:56;;;;;;;4.03;1.30;;;18.20;89.80;;;;;;5115079;28;20081;-52
2020/12/08 10:55:24;;;;;;;4.25;1.20;;;18.20;90.00;;;;;;5115757;27;20464;-53
2020/12/08 10:57:53;;;;;;;4.75;1.10;;;18.30;90.80;;;;;;5098130;28;20028;-51
2020/12/08 11:00:21;;;;;;;6.10;1.73;;;18.30;90.00;;;;;;5115181;28;20032;-48
2020/12/08 11:02:49;;;;;;;5.30;1.42;;;18.30;90.30;;;;;;5079309;28;20031;-47
2020/12/08 11:05:17;;;;;;;6.63;1.50;;;18.20;90.30;;;;;;5114700;28;20023;-49
2020/12/08 11:07:45;;;;;;;9.50;1.30;;;18.20;90.80;;;;;;5095904;28;20032;-49
2020/12/08 11:10:13;;;;;;;5.90;1.77;;;18.20;91.00;;;;;;5114956;28;20530;-47
2020/12/08 11:12:45;;;;;;;5.90;2.08;;;18.10;90.70;;;;;;5114541;28;20077;-46
2020/12/08 11:15:14;;;;;;;3.92;1.05;;;18.10;90.80;;;;;;5096144;28;20130;-53
2020/12/08 11:17:42;;;;;;;5.47;1.30;;;18.10;90.70;;;;;;5114707;28;20406;-50
2020/12/08 11:20:10;;;;;;;6.60;1.60;;;18.00;91.10;;;;;;5114416;28;20024;-47
2020/12/08 11:22:38;;;;;;;4.78;1.85;;;18.00;91.30;;;;;;5114543;28;20038;-49
2020/12/08 11:25:06;;;;;;;6.13;1.25;;;18.10;91.50;;;;;;5114470;28;20083;-50
2020/12/08 11:27:34;;;;;;;6.10;1.60;;;18.10;90.90;;;;;;5114489;28;20383;-48
2020/12/08 11:30:03;;;;;;;7.03;1.17;;;18.00;91.10;;;;;;5114801;28;20491;-50
2020/12/08 11:32:32;;;;;;;8.80;1.45;;;18.00;91.50;;;;;;5114155;28;20038;-51
2020/12/08 11:34:59;;;;;;;5.00;1.52;;;18.00;91.50;;;;;;5114429;28;20032;-51
2020/12/08 11:37:30;;;;;;;5.47;1.52;;;18.00;91.80;;;;;;5114196;28;20016;-51
2020/12/08 11:39:58;;;;;;;9.38;1.83;;;18.00;91.80;;;;;;5114874;28;20036;-53
2020/12/08 11:42:26;;;;;;;6.80;1.65;;;18.00;91.80;;;;;;5078396;28;20027;-50
2020/12/08 11:44:54;;;;;;;4.45;0.93;;;17.90;91.80;;;;;;5114345;28;20027;-51
2020/12/08 11:47:23;;;;;;;6.05;1.05;;;17.90;92.00;;;;;;5114079;28;20073;-47
2020/12/08 11:49:51;;;;;;;7.18;1.40;;;17.80;92.10;;;;;;5114087;28;20077;-51
2020/12/08 11:52:20;;;;;;;6.40;1.50;;;17.90;92.00;;;;;;5114111;28;20407;-49
2020/12/08 11:54:48;;;;;;;5.88;1.63;;;17.90;93.20;;;;;;5113952;28;20028;-51
2020/12/08 11:57:16;;;;;;;5.57;1.48;;;17.90;92.70;;;;;;5113743;28;20073;-50
2020/12/08 11:59:44;;;;;;;8.48;1.60;;;17.90;92.80;;;;;;5114106;28;20032;-51
2020/12/08 12:02:13;;;;;;;4.97;1.67;;;17.90;92.60;;;;;;5105953;28;20464;-51
2020/12/08 12:04:41;;;;;;;7.97;1.65;;;17.80;92.80;;;;;;5113667;28;20048;-48
2020/12/08 12:07:09;;;;;;;8.98;1.38;;;17.80;92.90;;;;;;5114557;28;20023;-49
2020/12/08 12:09:37;;;;;;;4.95;1.35;;;17.80;92.90;;;;;;5113912;28;20020;-49
2020/12/08 12:12:06;;;;;;;5.88;1.73;;;17.80;93.30;;;;;;5114000;28;20035;-48
2020/12/08 12:14:34;;;;;;;4.10;1.30;;;17.80;93.20;;;;;;5113617;28;20024;-50
2020/12/08 12:17:04;;;;;;;3.47;1.20;;;17.80;93.30;;;;;;5113371;28;20032;-54
2020/12/08 12:19:32;;;;;;;5.50;1.38;;;17.70;93.70;;;;;;5114385;28;20027;-51
2020/12/08 12:22:01;;;;;;;6.68;1.35;;;17.70;93.70;;;;;;5113411;28;20031;-51
2020/12/08 12:24:29;;;;;;;5.43;1.30;;;17.70;94.00;;;;;;5113857;28;20438;-48
2020/12/08 12:26:58;;;;;;;3.22;1.10;;;17.70;94.10;;;;;;5113661;28;20019;-53
2020/12/08 12:29:26;;;;;;;6.03;1.48;;;17.60;94.30;;;;;;5113787;28;20051;-52
2020/12/08 12:31:55;;;;;;;5.30;1.83;;;17.60;94.70;;;;;;5113867;28;20376;-50
2020/12/08 12:34:23;;;;;;;10.18;2.40;;;17.50;94.80;;;;;;5113854;28;20102;-52
2020/12/08 12:36:52;;;;;;;13.98;2.90;;;17.50;95.20;;;;;;5095501;28;20024;-52
2020/12/08 12:39:20;;;;;;;10.95;1.45;;;17.50;95.70;;;;;;5113617;28;20428;-52
2020/12/08 12:41:51;;;;;;;9.52;1.80;;;17.40;95.90;;;;;;5113717;28;20390;-48
2020/12/08 12:44:19;;;;;;;5.88;1.40;;;17.40;96.20;;;;;;5113611;28;20476;-52
2020/12/08 12:46:52;;;;;;;11.68;2.63;;;17.30;96.80;;;;;;5113285;28;20019;-49
2020/12/08 12:49:21;;;;;;;7.68;1.70;;;17.40;96.60;;;;;;5113662;28;20414;-51
2020/12/08 12:51:50;;;;;;;7.50;2.05;;;17.40;96.70;;;;;;5113298;28;20065;-48
2020/12/08 12:54:19;;;;;;;5.10;1.23;;;17.40;96.50;;;;;;5113182;28;20023;-51
2020/12/08 12:56:48;;;;;;;7.93;1.67;;;17.30;96.80;;;;;;5112983;27;20050;-50
2020/12/08 12:59:16;;;;;;;6.95;2.17;;;17.30;97.00;;;;;;5113088;28;20020;-51